sensor_id;sensor_type;location;lat;lon;timestamp;temperature;humidity
48589;DHT22;34369;51.174;6.738;2024-01-30T00:00:26;7.50;65.00
48589;DHT22;34369;51.174;6.738;2024-01-30T00:02:58;7.50;64.90
48589;DHT22;34369;51.174;6.738;2024-01-30T00:05:32;7.50;65.00
48589;DHT22;34369;51.174;6.738;2024-01-30T00:08:07;7.50;65.00
48589;DHT22;34369;51.174;6.738;2024-01-30T00:10:39;7.50;65.00
48589;DHT22;34369;51.174;6.738;2024-01-30T00:13:11;7.50;65.00
48589;DHT22;34369;51.174;6.738;2024-01-30T00:15:44;7.50;64.90
48589;DHT22;34369;51.174;6.738;2024-01-30T00:18:16;7.50;65.00
48589;DHT22;34369;51.174;6.738;2024-01-30T00:20:49;7.50;65.00
48589;DHT22;34369;51.174;6.738;2024-01-30T00:23:23;7.50;65.00
48589;DHT22;34369;51.174;6.738;2024-01-30T00:25:55;7.50;65.00
48589;DHT22;34369;51.174;6.738;2024-01-30T00:28:28;7.50;65.00
48589;DHT22;34369;51.174;6.738;2024-01-30T00:30:59;7.50;64.90
48589;DHT22;34369;51.174;6.738;2024-01-30T00:33:33;7.40;65.00
48589;DHT22;34369;51.174;6.738;2024-01-30T00:36:05;7.40;65.00
48589;DHT22;34369;51.174;6.738;2024-01-30T00:38:40;7.40;65.00
48589;DHT22;34369;51.174;6.738;2024-01-30T00:41:13;7.30;65.10
48589;DHT22;34369;51.174;6.738;2024-01-30T00:43:46;7.30;65.10
48589;DHT22;34369;51.174;6.738;2024-01-30T00:46:18;7.30;65.10
48589;DHT22;34369;51.174;6.738;2024-01-30T00:48:50;7.30;65.10
48589;DHT22;34369;51.174;6.738;2024-01-30T00:51:22;7.20;65.00
48589;DHT22;34369;51.174;6.738;2024-01-30T00:53:57;7.20;65.10
48589;DHT22;34369;51.174;6.738;2024-01-30T00:56:29;7.20;65.10
48589;DHT22;34369;51.174;6.738;2024-01-30T00:59:01;7.10;65.10
48589;DHT22;34369;51.174;6.738;2024-01-30T01:01:34;7.10;65.10
48589;DHT22;34369;51.174;6.738;2024-01-30T01:04:06;7.10;65.10
48589;DHT22;34369;51.174;6.738;2024-01-30T01:06:39;7.10;65.10
48589;DHT22;34369;51.174;6.738;2024-01-30T01:09:14;7.00;65.20
48589;DHT22;34369;51.174;6.738;2024-01-30T01:11:47;7.00;65.20
48589;DHT22;34369;51.174;6.738;2024-01-30T01:14:20;7.00;65.20
48589;DHT22;34369;51.174;6.738;2024-01-30T01:16:55;6.90;65.30
48589;DHT22;34369;51.174;6.738;2024-01-30T01:19:27;6.90;65.40
48589;DHT22;34369;51.174;6.738;2024-01-30T01:21:59;6.90;65.50
48589;DHT22;34369;51.174;6.738;2024-01-30T01:24:33;6.90;65.60
48589;DHT22;34369;51.174;6.738;2024-01-30T01:27:05;6.90;65.70
48589;DHT22;34369;51.174;6.738;2024-01-30T01:29:38;6.80;65.70
48589;DHT22;34369;51.174;6.738;2024-01-30T01:32:10;6.80;65.80
48589;DHT22;34369;51.174;6.738;2024-01-30T01:34:42;6.80;65.80
48589;DHT22;34369;51.174;6.738;2024-01-30T01:37:15;6.70;65.90
48589;DHT22;34369;51.174;6.738;2024-01-30T01:39:50;6.70;65.90
48589;DHT22;34369;51.174;6.738;2024-01-30T01:42:22;6.70;66.00
48589;DHT22;34369;51.174;6.738;2024-01-30T01:44:54;6.70;66.00
48589;DHT22;34369;51.174;6.738;2024-01-30T01:47:27;6.70;66.00
48589;DHT22;34369;51.174;6.738;2024-01-30T01:49:59;6.70;66.00
48589;DHT22;34369;51.174;6.738;2024-01-30T01:52:31;6.70;66.10
48589;DHT22;34369;51.174;6.738;2024-01-30T01:55:06;6.70;66.10
48589;DHT22;34369;51.174;6.738;2024-01-30T01:57:39;6.70;66.20
48589;DHT22;34369;51.174;6.738;2024-01-30T02:00:13;6.60;66.20
48589;DHT22;34369;51.174;6.738;2024-01-30T02:02:48;6.60;66.30
48589;DHT22;34369;51.174;6.738;2024-01-30T02:05:21;6.60;66.30
48589;DHT22;34369;51.174;6.738;2024-01-30T02:07:54;6.60;66.30
48589;DHT22;34369;51.174;6.738;2024-01-30T02:10:29;6.60;66.30
48589;DHT22;34369;51.174;6.738;2024-01-30T02:13:01;6.60;66.40
48589;DHT22;34369;51.174;6.738;2024-01-30T02:15:33;6.50;66.40
48589;DHT22;34369;51.174;6.738;2024-01-30T02:18:05;6.50;66.40
48589;DHT22;34369;51.174;6.738;2024-01-30T02:20:38;6.50;66.40
48589;DHT22;34369;51.174;6.738;2024-01-30T02:23:12;6.50;66.40
48589;DHT22;34369;51.174;6.738;2024-01-30T02:25:49;6.50;66.40
48589;DHT22;34369;51.174;6.738;2024-01-30T02:28:23;6.50;66.50
48589;DHT22;34369;51.174;6.738;2024-01-30T02:30:55;6.50;66.40
48589;DHT22;34369;51.174;6.738;2024-01-30T02:33:28;6.50;66.50
48589;DHT22;34369;51.174;6.738;2024-01-30T02:36:00;6.50;66.50
48589;DHT22;34369;51.174;6.738;2024-01-30T02:38:34;6.50;66.50
48589;DHT22;34369;51.174;6.738;2024-01-30T02:41:06;6.50;66.60
48589;DHT22;34369;51.174;6.738;2024-01-30T02:43:38;6.50;66.60
48589;DHT22;34369;51.174;6.738;2024-01-30T02:46:10;6.50;66.60
48589;DHT22;34369;51.174;6.738;2024-01-30T02:48:43;6.50;66.70
48589;DHT22;34369;51.174;6.738;2024-01-30T02:51:17;6.50;66.70
48589;DHT22;34369;51.174;6.738;2024-01-30T02:53:50;6.50;66.80
48589;DHT22;34369;51.174;6.738;2024-01-30T02:56:23;6.50;66.80
48589;DHT22;34369;51.174;6.738;2024-01-30T02:58:55;6.50;66.90
48589;DHT22;34369;51.174;6.738;2024-01-30T03:01:27;6.50;66.90
48589;DHT22;34369;51.174;6.738;2024-01-30T03:03:59;6.50;67.00
48589;DHT22;34369;51.174;6.738;2024-01-30T03:06:31;6.50;67.00
48589;DHT22;34369;51.174;6.738;2024-01-30T03:09:05;6.50;67.10
48589;DHT22;34369;51.174;6.738;2024-01-30T03:11:37;6.50;67.10
48589;DHT22;34369;51.174;6.738;2024-01-30T03:14:10;6.50;67.10
48589;DHT22;34369;51.174;6.738;2024-01-30T03:16:42;6.50;67.10
48589;DHT22;34369;51.174;6.738;2024-01-30T03:19:14;6.60;67.10
48589;DHT22;34369;51.174;6.738;2024-01-30T03:21:46;6.60;67.20
48589;DHT22;34369;51.174;6.738;2024-01-30T03:24:20;6.60;67.20
48589;DHT22;34369;51.174;6.738;2024-01-30T03:26:52;6.60;67.20
48589;DHT22;34369;51.174;6.738;2024-01-30T03:29:24;6.60;67.20
48589;DHT22;34369;51.174;6.738;2024-01-30T03:31:57;6.70;67.20
48589;DHT22;34369;51.174;6.738;2024-01-30T03:34:29;6.70;67.20
48589;DHT22;34369;51.174;6.738;2024-01-30T03:37:02;6.70;67.20
48589;DHT22;34369;51.174;6.738;2024-01-30T03:39:36;6.70;67.20
48589;DHT22;34369;51.174;6.738;2024-01-30T03:42:08;6.70;67.20
48589;DHT22;34369;51.174;6.738;2024-01-30T03:44:40;6.70;67.10
48589;DHT22;34369;51.174;6.738;2024-01-30T03:47:12;6.70;67.10
48589;DHT22;34369;51.174;6.738;2024-01-30T03:49:44;6.70;67.00
48589;DHT22;34369;51.174;6.738;2024-01-30T03:52:17;6.70;67.00
48589;DHT22;34369;51.174;6.738;2024-01-30T03:54:53;6.70;66.90
48589;DHT22;34369;51.174;6.738;2024-01-30T03:57:27;6.70;66.90
48589;DHT22;34369;51.174;6.738;2024-01-30T03:59:59;6.70;66.70
48589;DHT22;34369;51.174;6.738;2024-01-30T04:02:31;6.70;66.70
48589;DHT22;34369;51.174;6.738;2024-01-30T04:05:04;6.80;66.70
48589;DHT22;34369;51.174;6.738;2024-01-30T04:07:37;6.70;66.70
48589;DHT22;34369;51.174;6.738;2024-01-30T04:10:12;6.70;66.60
48589;DHT22;34369;51.174;6.738;2024-01-30T04:12:44;6.70;66.50
48589;DHT22;34369;51.174;6.738;2024-01-30T04:15:16;6.70;66.50
48589;DHT22;34369;51.174;6.738;2024-01-30T04:17:48;6.70;66.50
48589;DHT22;34369;51.174;6.738;2024-01-30T04:20:22;6.70;66.50
48589;DHT22;34369;51.174;6.738;2024-01-30T04:22:54;6.70;66.50
48589;DHT22;34369;51.174;6.738;2024-01-30T04:25:28;6.70;66.50
48589;DHT22;34369;51.174;6.738;2024-01-30T04:28:00;6.60;66.60
48589;DHT22;34369;51.174;6.738;2024-01-30T04:30:32;6.60;66.60
48589;DHT22;34369;51.174;6.738;2024-01-30T04:33:04;6.50;66.70
48589;DHT22;34369;51.174;6.738;2024-01-30T04:35:39;6.50;66.60
48589;DHT22;34369;51.174;6.738;2024-01-30T04:38:11;6.50;66.80
48589;DHT22;34369;51.174;6.738;2024-01-30T04:40:44;6.50;66.80
48589;DHT22;34369;51.174;6.738;2024-01-30T04:43:16;6.50;66.80
48589;DHT22;34369;51.174;6.738;2024-01-30T04:45:49;6.50;66.80
48589;DHT22;34369;51.174;6.738;2024-01-30T04:48:21;6.50;66.90
48589;DHT22;34369;51.174;6.738;2024-01-30T04:50:53;6.50;66.90
48589;DHT22;34369;51.174;6.738;2024-01-30T04:53:26;6.50;67.10
48589;DHT22;34369;51.174;6.738;2024-01-30T04:55:59;6.50;67.20
48589;DHT22;34369;51.174;6.738;2024-01-30T04:58:31;6.50;67.20
48589;DHT22;34369;51.174;6.738;2024-01-30T05:01:03;6.50;67.30
48589;DHT22;34369;51.174;6.738;2024-01-30T05:03:35;6.50;67.40
48589;DHT22;34369;51.174;6.738;2024-01-30T05:06:07;6.50;67.40
48589;DHT22;34369;51.174;6.738;2024-01-30T05:08:39;6.50;67.40
48589;DHT22;34369;51.174;6.738;2024-01-30T05:11:12;6.50;67.40
48589;DHT22;34369;51.174;6.738;2024-01-30T05:13:45;6.50;67.40
48589;DHT22;34369;51.174;6.738;2024-01-30T05:16:17;6.60;67.40
48589;DHT22;34369;51.174;6.738;2024-01-30T05:18:49;6.60;67.30
48589;DHT22;34369;51.174;6.738;2024-01-30T05:21:21;6.60;67.30
48589;DHT22;34369;51.174;6.738;2024-01-30T05:23:53;6.70;67.30
48589;DHT22;34369;51.174;6.738;2024-01-30T05:26:26;6.70;67.20
48589;DHT22;34369;51.174;6.738;2024-01-30T05:28:58;6.70;67.20
48589;DHT22;34369;51.174;6.738;2024-01-30T05:31:30;6.70;67.20
48589;DHT22;34369;51.174;6.738;2024-01-30T05:34:02;6.70;67.10
48589;DHT22;34369;51.174;6.738;2024-01-30T05:36:34;6.70;67.10
48589;DHT22;34369;51.174;6.738;2024-01-30T05:39:06;6.70;67.10
48589;DHT22;34369;51.174;6.738;2024-01-30T05:41:40;6.70;67.10
48589;DHT22;34369;51.174;6.738;2024-01-30T05:44:12;6.70;67.00
48589;DHT22;34369;51.174;6.738;2024-01-30T05:46:44;6.70;67.00
48589;DHT22;34369;51.174;6.738;2024-01-30T05:49:16;6.70;67.00
48589;DHT22;34369;51.174;6.738;2024-01-30T05:51:48;6.70;67.00
48589;DHT22;34369;51.174;6.738;2024-01-30T05:54:20;6.70;67.00
48589;DHT22;34369;51.174;6.738;2024-01-30T05:59:40;6.70;67.00
48589;DHT22;34369;51.174;6.738;2024-01-30T06:02:14;6.70;66.90
48589;DHT22;34369;51.174;6.738;2024-01-30T06:04:46;6.70;66.90
48589;DHT22;34369;51.174;6.738;2024-01-30T06:07:19;6.70;66.90
48589;DHT22;34369;51.174;6.738;2024-01-30T06:09:52;6.70;66.90
48589;DHT22;34369;51.174;6.738;2024-01-30T06:12:27;6.60;66.90
48589;DHT22;34369;51.174;6.738;2024-01-30T06:15:01;6.60;66.90
48589;DHT22;34369;51.174;6.738;2024-01-30T06:17:33;6.60;67.00
48589;DHT22;34369;51.174;6.738;2024-01-30T06:20:06;6.50;67.00
48589;DHT22;34369;51.174;6.738;2024-01-30T06:22:38;6.50;67.10
48589;DHT22;34369;51.174;6.738;2024-01-30T06:25:12;6.50;67.10
48589;DHT22;34369;51.174;6.738;2024-01-30T06:27:44;6.50;67.10
48589;DHT22;34369;51.174;6.738;2024-01-30T06:30:18;6.60;67.20
48589;DHT22;34369;51.174;6.738;2024-01-30T06:32:51;6.50;67.20
48589;DHT22;34369;51.174;6.738;2024-01-30T06:35:23;6.50;67.20
48589;DHT22;34369;51.174;6.738;2024-01-30T06:37:54;6.50;67.20
48589;DHT22;34369;51.174;6.738;2024-01-30T06:40:26;6.50;67.20
48589;DHT22;34369;51.174;6.738;2024-01-30T06:42:58;6.50;67.30
48589;DHT22;34369;51.174;6.738;2024-01-30T06:45:32;6.50;67.30
48589;DHT22;34369;51.174;6.738;2024-01-30T06:48:07;6.50;67.40
48589;DHT22;34369;51.174;6.738;2024-01-30T06:50:39;6.50;67.40
48589;DHT22;34369;51.174;6.738;2024-01-30T06:53:11;6.60;67.50
48589;DHT22;34369;51.174;6.738;2024-01-30T06:55:43;6.60;67.60
48589;DHT22;34369;51.174;6.738;2024-01-30T06:58:15;6.60;67.60
48589;DHT22;34369;51.174;6.738;2024-01-30T07:00:48;6.60;67.60
48589;DHT22;34369;51.174;6.738;2024-01-30T07:03:20;6.60;67.60
48589;DHT22;34369;51.174;6.738;2024-01-30T07:05:52;6.60;67.60
48589;DHT22;34369;51.174;6.738;2024-01-30T07:08:26;6.70;67.50
48589;DHT22;34369;51.174;6.738;2024-01-30T07:10:58;6.70;67.50
48589;DHT22;34369;51.174;6.738;2024-01-30T07:13:32;6.70;67.50
48589;DHT22;34369;51.174;6.738;2024-01-30T07:16:05;6.70;67.50
48589;DHT22;34369;51.174;6.738;2024-01-30T07:18:39;6.70;67.50
48589;DHT22;34369;51.174;6.738;2024-01-30T07:21:11;6.70;67.40
48589;DHT22;34369;51.174;6.738;2024-01-30T07:23:44;6.70;67.40
48589;DHT22;34369;51.174;6.738;2024-01-30T07:26:17;6.70;67.30
48589;DHT22;34369;51.174;6.738;2024-01-30T07:28:49;6.70;67.30
48589;DHT22;34369;51.174;6.738;2024-01-30T07:31:23;6.70;67.30
48589;DHT22;34369;51.174;6.738;2024-01-30T07:33:55;6.70;67.30
48589;DHT22;34369;51.174;6.738;2024-01-30T07:36:29;6.70;67.30
48589;DHT22;34369;51.174;6.738;2024-01-30T07:39:01;6.70;67.30
48589;DHT22;34369;51.174;6.738;2024-01-30T07:41:34;6.70;67.40
48589;DHT22;34369;51.174;6.738;2024-01-30T07:44:07;6.70;67.50
48589;DHT22;34369;51.174;6.738;2024-01-30T07:46:41;6.70;67.60
48589;DHT22;34369;51.174;6.738;2024-01-30T07:49:13;6.70;67.60
48589;DHT22;34369;51.174;6.738;2024-01-30T07:51:46;6.80;67.50
48589;DHT22;34369;51.174;6.738;2024-01-30T07:54:18;6.80;67.60
48589;DHT22;34369;51.174;6.738;2024-01-30T07:56:51;6.90;67.60
48589;DHT22;34369;51.174;6.738;2024-01-30T07:59:24;6.90;67.60
48589;DHT22;34369;51.174;6.738;2024-01-30T08:01:59;6.90;67.60
48589;DHT22;34369;51.174;6.738;2024-01-30T08:04:31;6.90;67.60
48589;DHT22;34369;51.174;6.738;2024-01-30T08:07:03;6.90;67.60
48589;DHT22;34369;51.174;6.738;2024-01-30T08:09:35;6.90;67.60
48589;DHT22;34369;51.174;6.738;2024-01-30T08:12:08;6.90;67.60
48589;DHT22;34369;51.174;6.738;2024-01-30T08:14:40;7.00;67.60
48589;DHT22;34369;51.174;6.738;2024-01-30T08:17:13;7.00;67.50
48589;DHT22;34369;51.174;6.738;2024-01-30T08:19:46;7.00;67.50
48589;DHT22;34369;51.174;6.738;2024-01-30T08:22:18;7.10;67.50
48589;DHT22;34369;51.174;6.738;2024-01-30T08:24:50;7.00;67.50
48589;DHT22;34369;51.174;6.738;2024-01-30T08:27:22;7.10;67.50
48589;DHT22;34369;51.174;6.738;2024-01-30T08:29:55;7.10;67.60
48589;DHT22;34369;51.174;6.738;2024-01-30T08:32:29;7.20;67.60
48589;DHT22;34369;51.174;6.738;2024-01-30T08:35:03;7.20;67.60
48589;DHT22;34369;51.174;6.738;2024-01-30T08:37:36;7.20;67.60
48589;DHT22;34369;51.174;6.738;2024-01-30T08:40:08;7.30;67.50
48589;DHT22;34369;51.174;6.738;2024-01-30T08:42:42;7.30;67.50
48589;DHT22;34369;51.174;6.738;2024-01-30T08:45:14;7.40;67.50
48589;DHT22;34369;51.174;6.738;2024-01-30T08:47:48;7.50;67.50
48589;DHT22;34369;51.174;6.738;2024-01-30T08:50:20;7.50;67.50
48589;DHT22;34369;51.174;6.738;2024-01-30T08:52:52;7.50;67.50
48589;DHT22;34369;51.174;6.738;2024-01-30T08:55:25;7.60;67.50
48589;DHT22;34369;51.174;6.738;2024-01-30T08:57:58;7.60;67.40
48589;DHT22;34369;51.174;6.738;2024-01-30T09:00:30;7.70;67.30
48589;DHT22;34369;51.174;6.738;2024-01-30T09:03:05;7.70;67.20
48589;DHT22;34369;51.174;6.738;2024-01-30T09:05:38;7.70;67.20
48589;DHT22;34369;51.174;6.738;2024-01-30T09:08:10;7.80;67.10
48589;DHT22;34369;51.174;6.738;2024-01-30T09:10:42;7.80;67.10
48589;DHT22;34369;51.174;6.738;2024-01-30T09:13:15;7.90;67.00
48589;DHT22;34369;51.174;6.738;2024-01-30T09:15:47;7.90;67.00
48589;DHT22;34369;51.174;6.738;2024-01-30T09:18:20;8.00;66.80
48589;DHT22;34369;51.174;6.738;2024-01-30T09:20:53;8.00;66.70
48589;DHT22;34369;51.174;6.738;2024-01-30T09:23:26;8.10;66.70
48589;DHT22;34369;51.174;6.738;2024-01-30T09:25:59;8.10;66.50
48589;DHT22;34369;51.174;6.738;2024-01-30T09:28:31;8.20;66.50
48589;DHT22;34369;51.174;6.738;2024-01-30T09:31:03;8.20;66.50
48589;DHT22;34369;51.174;6.738;2024-01-30T09:33:37;8.30;66.50
48589;DHT22;34369;51.174;6.738;2024-01-30T09:36:10;8.30;66.40
48589;DHT22;34369;51.174;6.738;2024-01-30T09:38:42;8.40;66.30
48589;DHT22;34369;51.174;6.738;2024-01-30T09:41:14;8.40;66.30
48589;DHT22;34369;51.174;6.738;2024-01-30T09:43:48;8.50;66.20
48589;DHT22;34369;51.174;6.738;2024-01-30T09:46:23;8.60;66.10
48589;DHT22;34369;51.174;6.738;2024-01-30T09:49:02;8.60;66.00
48589;DHT22;34369;51.174;6.738;2024-01-30T09:51:35;8.60;65.90
48589;DHT22;34369;51.174;6.738;2024-01-30T09:54:08;8.70;65.80
48589;DHT22;34369;51.174;6.738;2024-01-30T09:56:41;8.80;65.70
48589;DHT22;34369;51.174;6.738;2024-01-30T09:59:13;8.80;65.70
48589;DHT22;34369;51.174;6.738;2024-01-30T10:01:46;8.90;65.70
48589;DHT22;34369;51.174;6.738;2024-01-30T10:04:20;8.90;65.70
48589;DHT22;34369;51.174;6.738;2024-01-30T10:06:52;9.00;65.60
48589;DHT22;34369;51.174;6.738;2024-01-30T10:09:25;9.00;65.50
48589;DHT22;34369;51.174;6.738;2024-01-30T10:11:58;9.10;65.40
48589;DHT22;34369;51.174;6.738;2024-01-30T10:14:34;9.20;65.30
48589;DHT22;34369;51.174;6.738;2024-01-30T10:17:12;9.20;65.10
48589;DHT22;34369;51.174;6.738;2024-01-30T10:19:46;9.20;65.00
48589;DHT22;34369;51.174;6.738;2024-01-30T10:22:19;9.30;64.90
48589;DHT22;34369;51.174;6.738;2024-01-30T10:24:52;9.40;64.70
48589;DHT22;34369;51.174;6.738;2024-01-30T10:27:25;9.40;64.70
48589;DHT22;34369;51.174;6.738;2024-01-30T10:30:01;9.40;64.50
48589;DHT22;34369;51.174;6.738;2024-01-30T10:32:34;9.50;64.30
48589;DHT22;34369;51.174;6.738;2024-01-30T10:35:08;9.50;64.30
48589;DHT22;34369;51.174;6.738;2024-01-30T10:37:43;9.50;64.20
48589;DHT22;34369;51.174;6.738;2024-01-30T10:40:22;9.60;64.20
48589;DHT22;34369;51.174;6.738;2024-01-30T10:43:02;9.60;64.00
48589;DHT22;34369;51.174;6.738;2024-01-30T10:45:35;9.60;64.00
48589;DHT22;34369;51.174;6.738;2024-01-30T10:48:12;9.70;64.10
48589;DHT22;34369;51.174;6.738;2024-01-30T10:50:46;9.70;64.00
48589;DHT22;34369;51.174;6.738;2024-01-30T10:53:19;9.80;64.00
48589;DHT22;34369;51.174;6.738;2024-01-30T10:55:52;9.80;63.80
48589;DHT22;34369;51.174;6.738;2024-01-30T10:58:27;9.80;63.80
48589;DHT22;34369;51.174;6.738;2024-01-30T11:00:59;9.90;63.70
48589;DHT22;34369;51.174;6.738;2024-01-30T11:03:32;10.00;63.80
48589;DHT22;34369;51.174;6.738;2024-01-30T11:06:11;10.00;63.70
48589;DHT22;34369;51.174;6.738;2024-01-30T11:08:44;10.00;63.70
48589;DHT22;34369;51.174;6.738;2024-01-30T11:11:17;10.00;63.60
48589;DHT22;34369;51.174;6.738;2024-01-30T11:13:50;10.10;63.60
48589;DHT22;34369;51.174;6.738;2024-01-30T11:16:22;10.20;63.70
48589;DHT22;34369;51.174;6.738;2024-01-30T11:18:55;10.20;63.50
48589;DHT22;34369;51.174;6.738;2024-01-30T11:21:41;10.30;63.40
48589;DHT22;34369;51.174;6.738;2024-01-30T11:24:14;10.40;63.30
48589;DHT22;34369;51.174;6.738;2024-01-30T11:26:48;10.40;63.30
48589;DHT22;34369;51.174;6.738;2024-01-30T11:29:24;10.40;63.30
48589;DHT22;34369;51.174;6.738;2024-01-30T11:31:59;10.50;63.20
48589;DHT22;34369;51.174;6.738;2024-01-30T11:34:33;10.60;63.30
48589;DHT22;34369;51.174;6.738;2024-01-30T11:37:10;10.60;63.00
48589;DHT22;34369;51.174;6.738;2024-01-30T11:39:46;10.60;62.90
48589;DHT22;34369;51.174;6.738;2024-01-30T11:42:19;10.70;62.80
48589;DHT22;34369;51.174;6.738;2024-01-30T11:44:51;10.70;62.60
48589;DHT22;34369;51.174;6.738;2024-01-30T11:47:24;10.80;62.50
48589;DHT22;34369;51.174;6.738;2024-01-30T11:49:56;10.80;62.50
48589;DHT22;34369;51.174;6.738;2024-01-30T11:52:30;10.80;62.50
48589;DHT22;34369;51.174;6.738;2024-01-30T11:55:03;10.80;62.30
48589;DHT22;34369;51.174;6.738;2024-01-30T11:57:35;10.80;62.30
48589;DHT22;34369;51.174;6.738;2024-01-30T12:00:14;10.80;62.20
48589;DHT22;34369;51.174;6.738;2024-01-30T12:02:49;10.80;62.10
48589;DHT22;34369;51.174;6.738;2024-01-30T12:05:22;10.90;62.10
48589;DHT22;34369;51.174;6.738;2024-01-30T12:07:57;10.90;62.00
48589;DHT22;34369;51.174;6.738;2024-01-30T12:10:30;10.90;62.00
48589;DHT22;34369;51.174;6.738;2024-01-30T12:13:02;10.90;62.20
48589;DHT22;34369;51.174;6.738;2024-01-30T12:15:35;10.90;62.30
48589;DHT22;34369;51.174;6.738;2024-01-30T12:18:08;10.90;62.50
48589;DHT22;34369;51.174;6.738;2024-01-30T12:20:41;10.90;62.80
48589;DHT22;34369;51.174;6.738;2024-01-30T12:23:15;10.90;63.20
48589;DHT22;34369;51.174;6.738;2024-01-30T12:25:50;11.00;63.50
48589;DHT22;34369;51.174;6.738;2024-01-30T12:28:23;11.00;63.70
48589;DHT22;34369;51.174;6.738;2024-01-30T12:31:00;11.00;64.00
48589;DHT22;34369;51.174;6.738;2024-01-30T12:33:33;11.10;64.10
48589;DHT22;34369;51.174;6.738;2024-01-30T12:36:08;11.10;64.30
48589;DHT22;34369;51.174;6.738;2024-01-30T12:38:44;11.20;64.40
48589;DHT22;34369;51.174;6.738;2024-01-30T12:41:16;11.30;64.50
48589;DHT22;34369;51.174;6.738;2024-01-30T12:43:49;11.40;64.60
48589;DHT22;34369;51.174;6.738;2024-01-30T12:46:24;11.40;64.50
48589;DHT22;34369;51.174;6.738;2024-01-30T12:48:58;11.40;64.50
48589;DHT22;34369;51.174;6.738;2024-01-30T12:51:30;11.50;64.50
48589;DHT22;34369;51.174;6.738;2024-01-30T12:54:06;11.60;64.10
48589;DHT22;34369;51.174;6.738;2024-01-30T12:56:38;11.60;64.20
48589;DHT22;34369;51.174;6.738;2024-01-30T12:59:10;11.70;64.00
48589;DHT22;34369;51.174;6.738;2024-01-30T13:01:43;11.70;64.00
48589;DHT22;34369;51.174;6.738;2024-01-30T13:04:16;11.70;63.90
48589;DHT22;34369;51.174;6.738;2024-01-30T13:06:48;11.80;63.80
48589;DHT22;34369;51.174;6.738;2024-01-30T13:09:29;11.80;63.70
48589;DHT22;34369;51.174;6.738;2024-01-30T13:12:03;11.80;63.70
48589;DHT22;34369;51.174;6.738;2024-01-30T13:14:37;11.90;63.60
48589;DHT22;34369;51.174;6.738;2024-01-30T13:17:09;11.90;63.50
48589;DHT22;34369;51.174;6.738;2024-01-30T13:19:41;11.90;63.50
48589;DHT22;34369;51.174;6.738;2024-01-30T13:22:14;11.90;63.40
48589;DHT22;34369;51.174;6.738;2024-01-30T13:24:48;11.90;63.40
48589;DHT22;34369;51.174;6.738;2024-01-30T13:27:20;12.00;63.20
48589;DHT22;34369;51.174;6.738;2024-01-30T13:29:53;12.00;63.10
48589;DHT22;34369;51.174;6.738;2024-01-30T13:32:25;12.00;63.10
48589;DHT22;34369;51.174;6.738;2024-01-30T13:34:57;12.00;63.10
48589;DHT22;34369;51.174;6.738;2024-01-30T13:37:30;12.00;63.00
48589;DHT22;34369;51.174;6.738;2024-01-30T13:40:06;12.00;63.00
48589;DHT22;34369;51.174;6.738;2024-01-30T13:42:41;12.00;63.00
48589;DHT22;34369;51.174;6.738;2024-01-30T13:45:13;12.00;63.00
48589;DHT22;34369;51.174;6.738;2024-01-30T13:47:47;12.00;63.00
48589;DHT22;34369;51.174;6.738;2024-01-30T13:50:19;12.00;63.00
48589;DHT22;34369;51.174;6.738;2024-01-30T13:52:51;12.00;63.00
48589;DHT22;34369;51.174;6.738;2024-01-30T13:55:25;12.00;63.10
48589;DHT22;34369;51.174;6.738;2024-01-30T13:57:58;12.00;63.20
48589;DHT22;34369;51.174;6.738;2024-01-30T14:00:32;12.00;63.10
48589;DHT22;34369;51.174;6.738;2024-01-30T14:03:05;12.00;63.10
48589;DHT22;34369;51.174;6.738;2024-01-30T14:05:37;12.10;63.10
48589;DHT22;34369;51.174;6.738;2024-01-30T14:08:09;12.10;63.10
48589;DHT22;34369;51.174;6.738;2024-01-30T14:10:43;12.10;63.10
48589;DHT22;34369;51.174;6.738;2024-01-30T14:13:16;12.10;63.00
48589;DHT22;34369;51.174;6.738;2024-01-30T14:15:50;12.10;63.00
48589;DHT22;34369;51.174;6.738;2024-01-30T14:18:22;12.10;62.90
48589;DHT22;34369;51.174;6.738;2024-01-30T14:20:56;12.10;62.90
48589;DHT22;34369;51.174;6.738;2024-01-30T14:23:30;12.10;62.80
48589;DHT22;34369;51.174;6.738;2024-01-30T14:26:04;12.10;62.90
48589;DHT22;34369;51.174;6.738;2024-01-30T14:28:36;12.20;63.00
48589;DHT22;34369;51.174;6.738;2024-01-30T14:31:08;12.20;63.00
48589;DHT22;34369;51.174;6.738;2024-01-30T14:33:40;12.20;63.00
48589;DHT22;34369;51.174;6.738;2024-01-30T14:36:13;12.30;62.80
48589;DHT22;34369;51.174;6.738;2024-01-30T14:38:45;12.30;62.60
48589;DHT22;34369;51.174;6.738;2024-01-30T14:41:18;12.30;62.50
48589;DHT22;34369;51.174;6.738;2024-01-30T14:43:50;12.30;62.40
48589;DHT22;34369;51.174;6.738;2024-01-30T14:46:23;12.30;62.30
48589;DHT22;34369;51.174;6.738;2024-01-30T14:48:57;12.30;62.30
48589;DHT22;34369;51.174;6.738;2024-01-30T14:51:29;12.30;62.40
48589;DHT22;34369;51.174;6.738;2024-01-30T14:54:01;12.30;62.40
48589;DHT22;34369;51.174;6.738;2024-01-30T14:56:35;12.20;62.40
48589;DHT22;34369;51.174;6.738;2024-01-30T14:59:07;12.20;62.30
48589;DHT22;34369;51.174;6.738;2024-01-30T15:01:39;12.20;62.20
48589;DHT22;34369;51.174;6.738;2024-01-30T15:04:12;12.20;62.10
48589;DHT22;34369;51.174;6.738;2024-01-30T15:06:44;12.20;62.00
48589;DHT22;34369;51.174;6.738;2024-01-30T15:09:18;12.20;62.00
48589;DHT22;34369;51.174;6.738;2024-01-30T15:11:54;12.10;61.90
48589;DHT22;34369;51.174;6.738;2024-01-30T15:14:26;12.10;61.70
48589;DHT22;34369;51.174;6.738;2024-01-30T15:16:58;12.10;61.30
48589;DHT22;34369;51.174;6.738;2024-01-30T15:19:31;12.00;61.20
48589;DHT22;34369;51.174;6.738;2024-01-30T15:22:04;12.00;61.00
48589;DHT22;34369;51.174;6.738;2024-01-30T15:24:37;11.90;60.80
48589;DHT22;34369;51.174;6.738;2024-01-30T15:27:11;11.90;60.50
48589;DHT22;34369;51.174;6.738;2024-01-30T15:29:43;11.90;60.00
48589;DHT22;34369;51.174;6.738;2024-01-30T15:32:15;11.80;60.00
48589;DHT22;34369;51.174;6.738;2024-01-30T15:34:48;11.70;59.60
48589;DHT22;34369;51.174;6.738;2024-01-30T15:37:21;11.70;59.60
48589;DHT22;34369;51.174;6.738;2024-01-30T15:39:54;11.60;59.40
48589;DHT22;34369;51.174;6.738;2024-01-30T15:42:28;11.50;59.40
48589;DHT22;34369;51.174;6.738;2024-01-30T15:45:03;11.50;59.30
48589;DHT22;34369;51.174;6.738;2024-01-30T15:47:36;11.40;59.50
48589;DHT22;34369;51.174;6.738;2024-01-30T15:50:12;11.40;59.50
48589;DHT22;34369;51.174;6.738;2024-01-30T15:52:45;11.40;59.40
48589;DHT22;34369;51.174;6.738;2024-01-30T15:55:17;11.30;59.30
48589;DHT22;34369;51.174;6.738;2024-01-30T15:57:52;11.20;59.40
48589;DHT22;34369;51.174;6.738;2024-01-30T16:00:25;11.20;59.20
48589;DHT22;34369;51.174;6.738;2024-01-30T16:02:58;11.10;58.90
48589;DHT22;34369;51.174;6.738;2024-01-30T16:05:31;11.10;58.70
48589;DHT22;34369;51.174;6.738;2024-01-30T16:08:04;11.00;58.60
48589;DHT22;34369;51.174;6.738;2024-01-30T16:10:37;11.00;58.50
48589;DHT22;34369;51.174;6.738;2024-01-30T16:13:11;10.90;58.20
48589;DHT22;34369;51.174;6.738;2024-01-30T16:15:44;10.80;57.70
48589;DHT22;34369;51.174;6.738;2024-01-30T16:18:16;10.80;57.50